sensor_id;sensor_type;location;lat;lon;timestamp;P1;durP1;ratioP1;P2;durP2;ratioP2
67564;SDS011;54393;53.556;49.216;2022-08-19T00:01:54;4.60;;;3.30;;
67564;SDS011;54393;53.556;49.216;2022-08-19T00:04:23;3.92;;;3.17;;
67564;SDS011;54393;53.556;49.216;2022-08-19T00:06:51;4.32;;;3.30;;
67564;SDS011;54393;53.556;49.216;2022-08-19T00:09:19;4.12;;;3.72;;
67564;SDS011;54393;53.556;49.216;2022-08-19T00:11:46;3.97;;;3.03;;
67564;SDS011;54393;53.556;49.216;2022-08-19T00:14:13;7.12;;;4.00;;
67564;SDS011;54393;53.556;49.216;2022-08-19T00:16:41;3.47;;;3.15;;
67564;SDS011;54393;53.556;49.216;2022-08-19T00:19:09;3.55;;;3.00;;
67564;SDS011;54393;53.556;49.216;2022-08-19T00:21:35;3.62;;;3.25;;
67564;SDS011;54393;53.556;49.216;2022-08-19T00:24:05;4.53;;;3.08;;
67564;SDS011;54393;53.556;49.216;2022-08-19T00:26:36;3.20;;;2.90;;
67564;SDS011;54393;53.556;49.216;2022-08-19T00:29:04;2.92;;;2.70;;
67564;SDS011;54393;53.556;49.216;2022-08-19T00:31:31;3.78;;;3.30;;
67564;SDS011;54393;53.556;49.216;2022-08-19T00:33:58;3.30;;;3.00;;
67564;SDS011;54393;53.556;49.216;2022-08-19T00:36:24;3.90;;;3.20;;
67564;SDS011;54393;53.556;49.216;2022-08-19T00:38:51;3.10;;;2.80;;
67564;SDS011;54393;53.556;49.216;2022-08-19T00:41:19;3.70;;;2.95;;
67564;SDS011;54393;53.556;49.216;2022-08-19T00:43:57;4.22;;;2.75;;
67564;SDS011;54393;53.556;49.216;2022-08-19T00:46:29;3.90;;;2.97;;
67564;SDS011;54393;53.556;49.216;2022-08-19T00:48:58;3.03;;;2.80;;
67564;SDS011;54393;53.556;49.216;2022-08-19T00:51:26;3.53;;;2.62;;
67564;SDS011;54393;53.556;49.216;2022-08-19T00:53:54;3.50;;;2.78;;
67564;SDS011;54393;53.556;49.216;2022-08-19T00:56:22;2.87;;;2.58;;
67564;SDS011;54393;53.556;49.216;2022-08-19T00:58:48;3.25;;;2.75;;
67564;SDS011;54393;53.556;49.216;2022-08-19T01:01:15;3.62;;;2.65;;
67564;SDS011;54393;53.556;49.216;2022-08-19T01:03:42;2.95;;;2.67;;
67564;SDS011;54393;53.556;49.216;2022-08-19T01:06:08;3.25;;;2.95;;
67564;SDS011;54393;53.556;49.216;2022-08-19T01:08:35;3.10;;;2.40;;
67564;SDS011;54393;53.556;49.216;2022-08-19T01:11:01;3.12;;;2.83;;
67564;SDS011;54393;53.556;49.216;2022-08-19T01:13:29;3.22;;;2.92;;
67564;SDS011;54393;53.556;49.216;2022-08-19T01:15:59;2.78;;;2.50;;
67564;SDS011;54393;53.556;49.216;2022-08-19T01:18:35;3.08;;;2.87;;
67564;SDS011;54393;53.556;49.216;2022-08-19T01:21:05;3.03;;;2.65;;
67564;SDS011;54393;53.556;49.216;2022-08-19T01:23:52;2.75;;;2.45;;
67564;SDS011;54393;53.556;49.216;2022-08-19T01:26:20;2.78;;;2.58;;
67564;SDS011;54393;53.556;49.216;2022-08-19T01:28:48;2.50;;;2.30;;
67564;SDS011;54393;53.556;49.216;2022-08-19T01:31:18;3.08;;;2.42;;
67564;SDS011;54393;53.556;49.216;2022-08-19T01:33:48;2.67;;;2.47;;
67564;SDS011;54393;53.556;49.216;2022-08-19T01:36:19;2.90;;;2.65;;
67564;SDS011;54393;53.556;49.216;2022-08-19T01:38:58;3.05;;;2.85;;
67564;SDS011;54393;53.556;49.216;2022-08-19T01:41:25;2.62;;;2.42;;
67564;SDS011;54393;53.556;49.216;2022-08-19T01:43:52;2.72;;;2.50;;
67564;SDS011;54393;53.556;49.216;2022-08-19T01:46:19;3.55;;;2.75;;
67564;SDS011;54393;53.556;49.216;2022-08-19T01:48:46;2.40;;;2.20;;
67564;SDS011;54393;53.556;49.216;2022-08-19T01:51:13;2.50;;;2.25;;
67564;SDS011;54393;53.556;49.216;2022-08-19T01:53:40;2.80;;;2.25;;
67564;SDS011;54393;53.556;49.216;2022-08-19T01:56:07;2.37;;;2.17;;
67564;SDS011;54393;53.556;49.216;2022-08-19T01:58:45;3.17;;;2.60;;
67564;SDS011;54393;53.556;49.216;2022-08-19T02:01:20;2.70;;;2.50;;
67564;SDS011;54393;53.556;49.216;2022-08-19T02:03:47;2.70;;;2.25;;
67564;SDS011;54393;53.556;49.216;2022-08-19T02:06:13;4.07;;;2.53;;
67564;SDS011;54393;53.556;49.216;2022-08-19T02:08:42;2.83;;;2.60;;
67564;SDS011;54393;53.556;49.216;2022-08-19T02:11:17;2.85;;;2.42;;
67564;SDS011;54393;53.556;49.216;2022-08-19T02:13:45;4.00;;;2.72;;
67564;SDS011;54393;53.556;49.216;2022-08-19T02:16:12;3.45;;;2.72;;
67564;SDS011;54393;53.556;49.216;2022-08-19T02:18:38;2.95;;;2.50;;
67564;SDS011;54393;53.556;49.216;2022-08-19T02:21:05;2.92;;;2.60;;
67564;SDS011;54393;53.556;49.216;2022-08-19T02:23:31;3.85;;;2.85;;
67564;SDS011;54393;53.556;49.216;2022-08-19T02:25:57;3.20;;;2.90;;
67564;SDS011;54393;53.556;49.216;2022-08-19T02:28:24;4.72;;;2.92;;
67564;SDS011;54393;53.556;49.216;2022-08-19T02:30:51;3.83;;;2.50;;
67564;SDS011;54393;53.556;49.216;2022-08-19T02:33:17;3.15;;;2.58;;
67564;SDS011;54393;53.556;49.216;2022-08-19T02:35:45;2.78;;;2.53;;
67564;SDS011;54393;53.556;49.216;2022-08-19T02:38:12;3.05;;;2.62;;
67564;SDS011;54393;53.556;49.216;2022-08-19T02:40:52;3.50;;;2.70;;
67564;SDS011;54393;53.556;49.216;2022-08-19T02:43:23;3.10;;;2.80;;
67564;SDS011;54393;53.556;49.216;2022-08-19T02:45:51;2.58;;;2.37;;
67564;SDS011;54393;53.556;49.216;2022-08-19T02:48:21;3.35;;;3.05;;
67564;SDS011;54393;53.556;49.216;2022-08-19T02:50:50;3.05;;;2.17;;
67564;SDS011;54393;53.556;49.216;2022-08-19T02:53:24;2.90;;;2.60;;
67564;SDS011;54393;53.556;49.216;2022-08-19T02:55:51;3.72;;;2.83;;
67564;SDS011;54393;53.556;49.216;2022-08-19T02:58:18;4.62;;;2.70;;
67564;SDS011;54393;53.556;49.216;2022-08-19T03:00:46;3.22;;;2.92;;
67564;SDS011;54393;53.556;49.216;2022-08-19T03:03:15;3.45;;;2.80;;
67564;SDS011;54393;53.556;49.216;2022-08-19T03:05:42;2.78;;;2.53;;
67564;SDS011;54393;53.556;49.216;2022-08-19T03:08:08;2.70;;;2.50;;
67564;SDS011;54393;53.556;49.216;2022-08-19T03:10:41;2.42;;;2.22;;
67564;SDS011;54393;53.556;49.216;2022-08-19T03:13:10;3.30;;;2.83;;
67564;SDS011;54393;53.556;49.216;2022-08-19T03:15:44;3.05;;;2.75;;
67564;SDS011;54393;53.556;49.216;2022-08-19T03:18:12;2.72;;;2.53;;
67564;SDS011;54393;53.556;49.216;2022-08-19T03:20:40;3.28;;;2.58;;
67564;SDS011;54393;53.556;49.216;2022-08-19T03:23:10;2.92;;;2.58;;
67564;SDS011;54393;53.556;49.216;2022-08-19T03:25:42;3.25;;;2.53;;
67564;SDS011;54393;53.556;49.216;2022-08-19T03:28:10;3.17;;;2.22;;
67564;SDS011;54393;53.556;49.216;2022-08-19T03:30:38;3.00;;;2.65;;
67564;SDS011;54393;53.556;49.216;2022-08-19T03:33:06;3.15;;;2.62;;
67564;SDS011;54393;53.556;49.216;2022-08-19T03:35:33;2.75;;;2.42;;
67564;SDS011;54393;53.556;49.216;2022-08-19T03:38:03;2.60;;;2.40;;
67564;SDS011;54393;53.556;49.216;2022-08-19T03:40:30;2.20;;;2.00;;
67564;SDS011;54393;53.556;49.216;2022-08-19T03:42:57;2.58;;;2.37;;
67564;SDS011;54393;53.556;49.216;2022-08-19T03:45:24;2.95;;;2.35;;
67564;SDS011;54393;53.556;49.216;2022-08-19T03:47:50;3.50;;;2.50;;
67564;SDS011;54393;53.556;49.216;2022-08-19T03:50:17;3.80;;;2.20;;
67564;SDS011;54393;53.556;49.216;2022-08-19T03:52:47;5.53;;;2.70;;
67564;SDS011;54393;53.556;49.216;2022-08-19T03:55:15;2.20;;;2.00;;
67564;SDS011;54393;53.556;49.216;2022-08-19T03:57:42;2.62;;;2.08;;
67564;SDS011;54393;53.556;49.216;2022-08-19T04:00:10;3.37;;;2.62;;
67564;SDS011;54393;53.556;49.216;2022-08-19T04:02:37;4.18;;;2.60;;
67564;SDS011;54393;53.556;49.216;2022-08-19T04:05:04;4.07;;;2.53;;
67564;SDS011;54393;53.556;49.216;2022-08-19T04:07:31;3.20;;;2.90;;
67564;SDS011;54393;53.556;49.216;2022-08-19T04:09:58;4.10;;;2.28;;
67564;SDS011;54393;53.556;49.216;2022-08-19T04:12:25;4.20;;;2.35;;
67564;SDS011;54393;53.556;49.216;2022-08-19T04:14:52;4.05;;;2.58;;
67564;SDS011;54393;53.556;49.216;2022-08-19T04:17:18;6.60;;;2.70;;
67564;SDS011;54393;53.556;49.216;2022-08-19T04:19:45;3.97;;;2.37;;
67564;SDS011;54393;53.556;49.216;2022-08-19T04:22:11;7.50;;;2.55;;
67564;SDS011;54393;53.556;49.216;2022-08-19T04:24:38;3.15;;;2.20;;
67564;SDS011;54393;53.556;49.216;2022-08-19T04:27:04;4.97;;;2.87;;
67564;SDS011;54393;53.556;49.216;2022-08-19T04:29:31;7.05;;;2.45;;
67564;SDS011;54393;53.556;49.216;2022-08-19T04:31:58;3.65;;;2.62;;
67564;SDS011;54393;53.556;49.216;2022-08-19T04:34:26;6.53;;;2.78;;
67564;SDS011;54393;53.556;49.216;2022-08-19T04:36:54;4.20;;;2.50;;
67564;SDS011;54393;53.556;49.216;2022-08-19T04:39:23;2.90;;;2.30;;
67564;SDS011;54393;53.556;49.216;2022-08-19T04:42:13;3.70;;;2.53;;
67564;SDS011;54393;53.556;49.216;2022-08-19T04:44:59;4.22;;;2.87;;
67564;SDS011;54393;53.556;49.216;2022-08-19T04:47:29;3.83;;;2.55;;
67564;SDS011;54393;53.556;49.216;2022-08-19T04:49:56;3.55;;;2.42;;
67564;SDS011;54393;53.556;49.216;2022-08-19T04:52:22;3.58;;;2.20;;
67564;SDS011;54393;53.556;49.216;2022-08-19T04:54:49;5.95;;;2.47;;
67564;SDS011;54393;53.556;49.216;2022-08-19T04:57:15;8.75;;;2.30;;
67564;SDS011;54393;53.556;49.216;2022-08-19T04:59:41;4.72;;;2.30;;
67564;SDS011;54393;53.556;49.216;2022-08-19T05:02:08;7.40;;;3.03;;
67564;SDS011;54393;53.556;49.216;2022-08-19T05:04:35;7.12;;;2.55;;
67564;SDS011;54393;53.556;49.216;2022-08-19T05:07:04;5.68;;;2.40;;
67564;SDS011;54393;53.556;49.216;2022-08-19T05:09:35;2.45;;;2.17;;
67564;SDS011;54393;53.556;49.216;2022-08-19T05:12:01;9.32;;;2.67;;
67564;SDS011;54393;53.556;49.216;2022-08-19T05:14:28;6.03;;;3.03;;
67564;SDS011;54393;53.556;49.216;2022-08-19T05:16:54;2.67;;;2.15;;
67564;SDS011;54393;53.556;49.216;2022-08-19T05:19:21;6.20;;;2.60;;
67564;SDS011;54393;53.556;49.216;2022-08-19T05:22:06;5.47;;;2.87;;
67564;SDS011;54393;53.556;49.216;2022-08-19T05:24:51;4.22;;;2.28;;
67564;SDS011;54393;53.556;49.216;2022-08-19T05:27:17;3.85;;;1.83;;
67564;SDS011;54393;53.556;49.216;2022-08-19T05:29:44;4.35;;;2.40;;
67564;SDS011;54393;53.556;49.216;2022-08-19T05:32:10;4.28;;;2.40;;
67564;SDS011;54393;53.556;49.216;2022-08-19T05:34:37;4.05;;;2.42;;
67564;SDS011;54393;53.556;49.216;2022-08-19T05:37:04;2.70;;;2.30;;
67564;SDS011;54393;53.556;49.216;2022-08-19T05:39:32;5.95;;;2.17;;
67564;SDS011;54393;53.556;49.216;2022-08-19T05:42:00;3.37;;;2.25;;
67564;SDS011;54393;53.556;49.216;2022-08-19T05:44:32;4.50;;;2.50;;
67564;SDS011;54393;53.556;49.216;2022-08-19T05:47:00;2.42;;;2.22;;
67564;SDS011;54393;53.556;49.216;2022-08-19T05:49:29;2.95;;;2.25;;
67564;SDS011;54393;53.556;49.216;2022-08-19T05:51:57;3.97;;;2.45;;
67564;SDS011;54393;53.556;49.216;2022-08-19T05:54:24;3.87;;;2.05;;
67564;SDS011;54393;53.556;49.216;2022-08-19T05:56:52;2.37;;;2.17;;
67564;SDS011;54393;53.556;49.216;2022-08-19T05:59:19;3.70;;;2.25;;
67564;SDS011;54393;53.556;49.216;2022-08-19T06:01:47;3.45;;;2.08;;
67564;SDS011;54393;53.556;49.216;2022-08-19T06:04:16;3.72;;;2.00;;
67564;SDS011;54393;53.556;49.216;2022-08-19T06:06:44;3.22;;;2.22;;
67564;SDS011;54393;53.556;49.216;2022-08-19T06:09:11;3.95;;;2.33;;
67564;SDS011;54393;53.556;49.216;2022-08-19T06:14:13;3.10;;;2.62;;
67564;SDS011;54393;53.556;49.216;2022-08-19T06:16:41;4.20;;;2.20;;
67564;SDS011;54393;53.556;49.216;2022-08-19T06:19:10;3.37;;;2.78;;
67564;SDS011;54393;53.556;49.216;2022-08-19T06:21:39;2.60;;;2.37;;
67564;SDS011;54393;53.556;49.216;2022-08-19T06:24:11;3.70;;;2.60;;
67564;SDS011;54393;53.556;49.216;2022-08-19T06:26:39;5.60;;;2.67;;
67564;SDS011;54393;53.556;49.216;2022-08-19T06:29:09;2.95;;;2.40;;
67564;SDS011;54393;53.556;49.216;2022-08-19T06:31:36;4.50;;;2.42;;
67564;SDS011;54393;53.556;49.216;2022-08-19T06:34:05;5.97;;;2.70;;
67564;SDS011;54393;53.556;49.216;2022-08-19T06:36:33;4.60;;;2.53;;
67564;SDS011;54393;53.556;49.216;2022-08-19T06:39:06;4.22;;;2.55;;
67564;SDS011;54393;53.556;49.216;2022-08-19T06:41:34;3.00;;;2.25;;
67564;SDS011;54393;53.556;49.216;2022-08-19T06:44:03;6.37;;;2.83;;
67564;SDS011;54393;53.556;49.216;2022-08-19T06:46:29;3.70;;;2.25;;
67564;SDS011;54393;53.556;49.216;2022-08-19T06:48:56;7.40;;;2.55;;
67564;SDS011;54393;53.556;49.216;2022-08-19T06:51:24;5.22;;;2.65;;
67564;SDS011;54393;53.556;49.216;2022-08-19T06:53:51;4.12;;;2.37;;
67564;SDS011;54393;53.556;49.216;2022-08-19T06:56:20;4.20;;;2.80;;
67564;SDS011;54393;53.556;49.216;2022-08-19T06:58:50;2.60;;;2.33;;
67564;SDS011;54393;53.556;49.216;2022-08-19T07:01:18;3.12;;;2.80;;
67564;SDS011;54393;53.556;49.216;2022-08-19T07:03:45;3.58;;;2.78;;
67564;SDS011;54393;53.556;49.216;2022-08-19T07:06:13;3.60;;;2.45;;
67564;SDS011;54393;53.556;49.216;2022-08-19T07:08:43;3.00;;;2.53;;
67564;SDS011;54393;53.556;49.216;2022-08-19T07:11:11;3.65;;;2.80;;
67564;SDS011;54393;53.556;49.216;2022-08-19T07:13:38;5.45;;;2.78;;
67564;SDS011;54393;53.556;49.216;2022-08-19T07:16:10;4.87;;;2.47;;
67564;SDS011;54393;53.556;49.216;2022-08-19T07:18:38;3.83;;;2.67;;
67564;SDS011;54393;53.556;49.216;2022-08-19T07:21:05;2.53;;;2.33;;
67564;SDS011;54393;53.556;49.216;2022-08-19T07:23:33;2.62;;;2.35;;
67564;SDS011;54393;53.556;49.216;2022-08-19T07:26:06;2.50;;;2.30;;
67564;SDS011;54393;53.556;49.216;2022-08-19T07:28:44;2.50;;;2.30;;
67564;SDS011;54393;53.556;49.216;2022-08-19T07:31:16;2.53;;;2.33;;
67564;SDS011;54393;53.556;49.216;2022-08-19T07:33:43;5.80;;;2.75;;
67564;SDS011;54393;53.556;49.216;2022-08-19T07:36:13;3.20;;;2.60;;
67564;SDS011;54393;53.556;49.216;2022-08-19T07:38:42;2.97;;;2.33;;
67564;SDS011;54393;53.556;49.216;2022-08-19T07:41:11;2.75;;;2.17;;
67564;SDS011;54393;53.556;49.216;2022-08-19T07:43:39;7.10;;;2.40;;
67564;SDS011;54393;53.556;49.216;2022-08-19T07:46:06;4.28;;;2.50;;
67564;SDS011;54393;53.556;49.216;2022-08-19T07:48:33;2.78;;;2.50;;
67564;SDS011;54393;53.556;49.216;2022-08-19T07:51:00;7.35;;;3.28;;
67564;SDS011;54393;53.556;49.216;2022-08-19T07:53:30;3.67;;;2.65;;
67564;SDS011;54393;53.556;49.216;2022-08-19T07:55:58;3.83;;;2.83;;
67564;SDS011;54393;53.556;49.216;2022-08-19T07:58:30;3.60;;;2.47;;
67564;SDS011;54393;53.556;49.216;2022-08-19T08:00:57;4.00;;;2.67;;
67564;SDS011;54393;53.556;49.216;2022-08-19T08:03:24;3.87;;;2.90;;
67564;SDS011;54393;53.556;49.216;2022-08-19T08:06:11;3.72;;;2.75;;
67564;SDS011;54393;53.556;49.216;2022-08-19T08:08:57;6.15;;;2.53;;
67564;SDS011;54393;53.556;49.216;2022-08-19T08:11:46;6.87;;;3.00;;
67564;SDS011;54393;53.556;49.216;2022-08-19T08:14:17;2.65;;;2.42;;
67564;SDS011;54393;53.556;49.216;2022-08-19T08:16:50;5.35;;;2.85;;
67564;SDS011;54393;53.556;49.216;2022-08-19T08:19:18;3.12;;;2.25;;
67564;SDS011;54393;53.556;49.216;2022-08-19T08:21:46;2.87;;;2.67;;
67564;SDS011;54393;53.556;49.216;2022-08-19T08:24:13;3.35;;;2.85;;
67564;SDS011;54393;53.556;49.216;2022-08-19T08:26:40;6.60;;;2.58;;
67564;SDS011;54393;53.556;49.216;2022-08-19T08:29:07;2.95;;;2.58;;
67564;SDS011;54393;53.556;49.216;2022-08-19T08:31:36;3.53;;;2.47;;
67564;SDS011;54393;53.556;49.216;2022-08-19T08:34:03;2.72;;;2.40;;
67564;SDS011;54393;53.556;49.216;2022-08-19T08:36:30;8.38;;;2.37;;
67564;SDS011;54393;53.556;49.216;2022-08-19T08:38:59;3.50;;;2.90;;
67564;SDS011;54393;53.556;49.216;2022-08-19T08:44:17;3.97;;;2.45;;
67564;SDS011;54393;53.556;49.216;2022-08-19T08:46:57;4.22;;;2.95;;
67564;SDS011;54393;53.556;49.216;2022-08-19T08:49:31;5.18;;;2.80;;
67564;SDS011;54393;53.556;49.216;2022-08-19T08:52:04;4.00;;;2.85;;
67564;SDS011;54393;53.556;49.216;2022-08-19T08:54:39;3.67;;;2.90;;
67564;SDS011;54393;53.556;49.216;2022-08-19T08:57:10;5.80;;;2.90;;
67564;SDS011;54393;53.556;49.216;2022-08-19T08:59:39;5.05;;;2.70;;
67564;SDS011;54393;53.556;49.216;2022-08-19T09:02:07;2.30;;;2.20;;
67564;SDS011;54393;53.556;49.216;2022-08-19T09:04:34;6.45;;;2.45;;
67564;SDS011;54393;53.556;49.216;2022-08-19T09:09:47;4.68;;;2.50;;
67564;SDS011;54393;53.556;49.216;2022-08-19T09:15:12;3.28;;;2.70;;
67564;SDS011;54393;53.556;49.216;2022-08-19T09:17:39;4.20;;;2.62;;
67564;SDS011;54393;53.556;49.216;2022-08-19T09:22:36;4.57;;;2.70;;
67564;SDS011;54393;53.556;49.216;2022-08-19T09:25:04;4.50;;;2.72;;
67564;SDS011;54393;53.556;49.216;2022-08-19T09:27:31;4.70;;;2.78;;
67564;SDS011;54393;53.556;49.216;2022-08-19T09:29:57;3.10;;;2.70;;
67564;SDS011;54393;53.556;49.216;2022-08-19T09:32:24;3.60;;;2.37;;
67564;SDS011;54393;53.556;49.216;2022-08-19T09:34:51;3.92;;;2.80;;
67564;SDS011;54393;53.556;49.216;2022-08-19T09:37:23;4.12;;;2.67;;
67564;SDS011;54393;53.556;49.216;2022-08-19T09:39:50;3.45;;;2.28;;
67564;SDS011;54393;53.556;49.216;2022-08-19T09:42:17;2.90;;;2.65;;
67564;SDS011;54393;53.556;49.216;2022-08-19T09:44:44;2.85;;;2.65;;
67564;SDS011;54393;53.556;49.216;2022-08-19T09:47:11;5.07;;;2.92;;
67564;SDS011;54393;53.556;49.216;2022-08-19T09:49:40;4.50;;;2.60;;
67564;SDS011;54393;53.556;49.216;2022-08-19T09:52:10;2.67;;;2.37;;
67564;SDS011;54393;53.556;49.216;2022-08-19T09:54:37;2.70;;;2.50;;
67564;SDS011;54393;53.556;49.216;2022-08-19T09:57:04;2.70;;;2.50;;
67564;SDS011;54393;53.556;49.216;2022-08-19T09:59:31;3.60;;;2.10;;
67564;SDS011;54393;53.556;49.216;2022-08-19T10:01:57;4.28;;;2.47;;
67564;SDS011;54393;53.556;49.216;2022-08-19T10:04:24;2.92;;;2.65;;
67564;SDS011;54393;53.556;49.216;2022-08-19T10:07:11;5.20;;;2.25;;
67564;SDS011;54393;53.556;49.216;2022-08-19T10:09:37;4.07;;;2.35;;
67564;SDS011;54393;53.556;49.216;2022-08-19T10:12:06;3.60;;;2.30;;
67564;SDS011;54393;53.556;49.216;2022-08-19T10:14:33;3.70;;;2.37;;
67564;SDS011;54393;53.556;49.216;2022-08-19T10:17:00;3.25;;;2.20;;
67564;SDS011;54393;53.556;49.216;2022-08-19T10:19:27;3.30;;;2.53;;
67564;SDS011;54393;53.556;49.216;2022-08-19T10:22:04;3.72;;;2.40;;
67564;SDS011;54393;53.556;49.216;2022-08-19T10:24:36;3.03;;;2.53;;
67564;SDS011;54393;53.556;49.216;2022-08-19T10:27:02;3.80;;;2.30;;
67564;SDS011;54393;53.556;49.216;2022-08-19T10:29:30;3.35;;;2.62;;
67564;SDS011;54393;53.556;49.216;2022-08-19T10:32:06;3.83;;;2.40;;
67564;SDS011;54393;53.556;49.216;2022-08-19T10:34:34;4.93;;;2.07;;
67564;SDS011;54393;53.556;49.216;2022-08-19T10:37:02;2.65;;;2.42;;
67564;SDS011;54393;53.556;49.216;2022-08-19T10:39:31;3.37;;;2.42;;
67564;SDS011;54393;53.556;49.216;2022-08-19T10:41:58;3.60;;;2.70;;
67564;SDS011;54393;53.556;49.216;2022-08-19T10:44:28;3.67;;;2.28;;
67564;SDS011;54393;53.556;49.216;2022-08-19T10:46:55;3.25;;;2.53;;
67564;SDS011;54393;53.556;49.216;2022-08-19T10:49:21;2.08;;;1.92;;
67564;SDS011;54393;53.556;49.216;2022-08-19T10:51:49;4.82;;;2.50;;
67564;SDS011;54393;53.556;49.216;2022-08-19T10:54:34;2.58;;;2.37;;
67564;SDS011;54393;53.556;49.216;2022-08-19T10:57:19;4.37;;;2.40;;
67564;SDS011;54393;53.556;49.216;2022-08-19T10:59:49;3.58;;;2.53;;
67564;SDS011;54393;53.556;49.216;2022-08-19T11:02:15;3.10;;;2.80;;
67564;SDS011;54393;53.556;49.216;2022-08-19T11:04:42;3.65;;;2.30;;
67564;SDS011;54393;53.556;49.216;2022-08-19T11:07:08;4.00;;;2.45;;
67564;SDS011;54393;53.556;49.216;2022-08-19T11:09:41;3.72;;;2.30;;
67564;SDS011;54393;53.556;49.216;2022-08-19T11:12:08;3.05;;;2.45;;
67564;SDS011;54393;53.556;49.216;2022-08-19T11:14:35;2.53;;;2.35;;
67564;SDS011;54393;53.556;49.216;2022-08-19T11:17:03;3.37;;;2.33;;
67564;SDS011;54393;53.556;49.216;2022-08-19T11:19:30;5.40;;;2.53;;
67564;SDS011;54393;53.556;49.216;2022-08-19T11:21:56;8.48;;;2.87;;
67564;SDS011;54393;53.556;49.216;2022-08-19T11:24:26;4.47;;;2.50;;
67564;SDS011;54393;53.556;49.216;2022-08-19T11:26:54;5.50;;;2.37;;
67564;SDS011;54393;53.556;49.216;2022-08-19T11:29:25;3.37;;;2.60;;
67564;SDS011;54393;53.556;49.216;2022-08-19T11:31:53;3.97;;;2.47;;
67564;SDS011;54393;53.556;49.216;2022-08-19T11:34:24;5.78;;;2.33;;
67564;SDS011;54393;53.556;49.216;2022-08-19T11:36:52;3.55;;;2.33;;
67564;SDS011;54393;53.556;49.216;2022-08-19T11:39:26;3.67;;;2.50;;
67564;SDS011;54393;53.556;49.216;2022-08-19T11:41:53;2.62;;;2.42;;
67564;SDS011;54393;53.556;49.216;2022-08-19T11:44:20;3.92;;;2.33;;
67564;SDS011;54393;53.556;49.216;2022-08-19T11:46:47;4.90;;;2.67;;
67564;SDS011;54393;53.556;49.216;2022-08-19T11:49:14;4.47;;;2.17;;
67564;SDS011;54393;53.556;49.216;2022-08-19T11:51:41;4.47;;;2.47;;
67564;SDS011;54393;53.556;49.216;2022-08-19T11:54:08;3.25;;;1.98;;
67564;SDS011;54393;53.556;49.216;2022-08-19T11:56:36;2.45;;;2.25;;
67564;SDS011;54393;53.556;49.216;2022-08-19T11:59:03;4.00;;;2.28;;
67564;SDS011;54393;53.556;49.216;2022-08-19T12:01:29;2.00;;;1.83;;
67564;SDS011;54393;53.556;49.216;2022-08-19T12:03:56;2.72;;;1.87;;
67564;SDS011;54393;53.556;49.216;2022-08-19T12:06:24;2.95;;;2.00;;
67564;SDS011;54393;53.556;49.216;2022-08-19T12:08:54;2.30;;;2.00;;
67564;SDS011;54393;53.556;49.216;2022-08-19T12:11:21;3.78;;;1.75;;
67564;SDS011;54393;53.556;49.216;2022-08-19T12:13:48;1.95;;;1.77;;
67564;SDS011;54393;53.556;49.216;2022-08-19T12:16:16;2.33;;;2.10;;
67564;SDS011;54393;53.556;49.216;2022-08-19T12:18:44;3.95;;;2.22;;
67564;SDS011;54393;53.556;49.216;2022-08-19T12:21:18;3.25;;;2.30;;
67564;SDS011;54393;53.556;49.216;2022-08-19T12:23:48;3.45;;;2.15;;
67564;SDS011;54393;53.556;49.216;2022-08-19T12:26:15;2.15;;;1.65;;
67564;SDS011;54393;53.556;49.216;2022-08-19T12:28:42;3.97;;;1.80;;
67564;SDS011;54393;53.556;49.216;2022-08-19T12:31:09;2.75;;;2.00;;
67564;SDS011;54393;53.556;49.216;2022-08-19T12:33:39;2.00;;;1.90;;
67564;SDS011;54393;53.556;49.216;2022-08-19T12:36:07;2.12;;;1.90;;
67564;SDS011;54393;53.556;49.216;2022-08-19T12:38:35;2.70;;;1.83;;
67564;SDS011;54393;53.556;49.216;2022-08-19T12:41:02;2.08;;;1.87;;
67564;SDS011;54393;53.556;49.216;2022-08-19T12:43:31;4.05;;;1.87;;
67564;SDS011;54393;53.556;49.216;2022-08-19T12:46:02;2.20;;;2.00;;
67564;SDS011;54393;53.556;49.216;2022-08-19T12:48:29;3.40;;;1.80;;
67564;SDS011;54393;53.556;49.216;2022-08-19T12:50:56;2.37;;;1.90;;
67564;SDS011;54393;53.556;49.216;2022-08-19T12:53:23;2.83;;;2.17;;
67564;SDS011;54393;53.556;49.216;2022-08-19T12:55:56;1.83;;;1.60;;
67564;SDS011;54393;53.556;49.216;2022-08-19T12:58:25;2.00;;;1.80;;
67564;SDS011;54393;53.556;49.216;2022-08-19T13:00:52;2.53;;;1.75;;
67564;SDS011;54393;53.556;49.216;2022-08-19T13:03:18;3.47;;;1.90;;
67564;SDS011;54393;53.556;49.216;2022-08-19T13:05:45;1.60;;;1.50;;
67564;SDS011;54393;53.556;49.216;2022-08-19T13:08:11;3.33;;;1.90;;
67564;SDS011;54393;53.556;49.216;2022-08-19T13:10:37;5.12;;;1.80;;
67564;SDS011;54393;53.556;49.216;2022-08-19T13:13:07;2.40;;;1.67;;
67564;SDS011;54393;53.556;49.216;2022-08-19T13:15:38;2.10;;;1.90;;
67564;SDS011;54393;53.556;49.216;2022-08-19T13:18:07;2.37;;;1.70;;
67564;SDS011;54393;53.556;49.216;2022-08-19T13:20:34;1.75;;;1.60;;
67564;SDS011;54393;53.556;49.216;2022-08-19T13:23:01;1.85;;;1.60;;
67564;SDS011;54393;53.556;49.216;2022-08-19T13:25:29;1.83;;;1.73;;
67564;SDS011;54393;53.556;49.216;2022-08-19T13:27:55;2.50;;;1.75;;
67564;SDS011;54393;53.556;49.216;2022-08-19T13:30:22;2.20;;;1.70;;
67564;SDS011;54393;53.556;49.216;2022-08-19T13:33:08;2.75;;;2.30;;
67564;SDS011;54393;53.556;49.216;2022-08-19T13:35:46;1.87;;;1.70;;
67564;SDS011;54393;53.556;49.216;2022-08-19T13:38:21;1.73;;;1.62;;
67564;SDS011;54393;53.556;49.216;2022-08-19T13:40:48;3.50;;;1.52;;
67564;SDS011;54393;53.556;49.216;2022-08-19T13:43:16;2.87;;;1.70;;
67564;SDS011;54393;53.556;49.216;2022-08-19T13:45:45;4.75;;;1.40;;
67564;SDS011;54393;53.556;49.216;2022-08-19T13:48:11;2.70;;;1.85;;
67564;SDS011;54393;53.556;49.216;2022-08-19T13:50:39;4.43;;;1.55;;
67564;SDS011;54393;53.556;49.216;2022-08-19T13:53:07;1.58;;;1.30;;
67564;SDS011;54393;53.556;49.216;2022-08-19T13:55:34;1.45;;;1.35;;
67564;SDS011;54393;53.556;49.216;2022-08-19T13:58:02;2.30;;;1.52;;
67564;SDS011;54393;53.556;49.216;2022-08-19T14:00:30;2.08;;;1.30;;
67564;SDS011;54393;53.556;49.216;2022-08-19T14:02:58;1.50;;;1.40;;
67564;SDS011;54393;53.556;49.216;2022-08-19T14:05:26;2.10;;;1.50;;
67564;SDS011;54393;53.556;49.216;2022-08-19T14:07:53;1.95;;;1.40;;
67564;SDS011;54393;53.556;49.216;2022-08-19T14:10:20;3.97;;;1.70;;
67564;SDS011;54393;53.556;49.216;2022-08-19T14:12:47;2.60;;;1.65;;
67564;SDS011;54393;53.556;49.216;2022-08-19T14:15:13;1.87;;;1.65;;
67564;SDS011;54393;53.556;49.216;2022-08-19T14:17:43;3.83;;;1.42;;
67564;SDS011;54393;53.556;49.216;2022-08-19T14:20:12;2.53;;;1.35;;
67564;SDS011;54393;53.556;49.216;2022-08-19T14:22:40;1.85;;;1.55;;
67564;SDS011;54393;53.556;49.216;2022-08-19T14:25:08;2.00;;;1.33;;
67564;SDS011;54393;53.556;49.216;2022-08-19T14:27:37;1.50;;;1.40;;
67564;SDS011;54393;53.556;49.216;2022-08-19T14:30:05;1.58;;;1.10;;
67564;SDS011;54393;53.556;49.216;2022-08-19T14:32:33;1.77;;;1.12;;
67564;SDS011;54393;53.556;49.216;2022-08-19T14:35:00;1.48;;;1.37;;
67564;SDS011;54393;53.556;49.216;2022-08-19T14:37:27;1.40;;;1.30;;
67564;SDS011;54393;53.556;49.216;2022-08-19T14:39:54;1.20;;;1.10;;
67564;SDS011;54393;53.556;49.216;2022-08-19T14:42:20;1.33;;;1.27;;
67564;SDS011;54393;53.556;49.216;2022-08-19T14:44:46;1.25;;;1.20;;
67564;SDS011;54393;53.556;49.216;2022-08-19T14:47:13;1.50;;;1.40;;
67564;SDS011;54393;53.556;49.216;2022-08-19T14:49:39;2.53;;;1.45;;
67564;SDS011;54393;53.556;49.216;2022-08-19T14:52:06;1.52;;;1.02;;
67564;SDS011;54393;53.556;49.216;2022-08-19T14:54:32;1.77;;;1.20;;
67564;SDS011;54393;53.556;49.216;2022-08-19T14:56:59;1.20;;;1.15;;